Time;durP1;ratioP1;P1;durP2;ratioP2;P2;SDS_P1;SDS_P2;PMS_P1;PMS_P2;Temp;Humidity;BMP_temperature;BMP_pressure;BME280_temperature;BME280_humidity;BME280_pressure;Samples;Min_cycle;Max_cycle;Signal;HPM_P1;HPM_P2
2024/04/09 00:00:08;;;;;;;67.55;10.02;;;;;;;16.61;100.00;96906.78;5333553;26;20000;-63
2024/04/09 00:02:34;;;;;;;58.42;9.35;;;;;;;16.69;100.00;96905.56;5332994;26;20642;-63
2024/04/09 00:04:59;;;;;;;72.75;10.35;;;;;;;16.61;100.00;96898.06;5332807;26;20091;-65
2024/04/09 00:07:24;;;;;;;76.75;11.32;;;;;;;16.58;100.00;96906.91;5331369;26;20013;-63
2024/04/09 00:09:52;;;;;;;94.38;11.02;;;;;;;16.62;100.00;96899.75;5330695;26;20824;-67
2024/04/09 00:12:21;;;;;;;73.55;11.02;;;;;;;16.44;100.00;96897.03;5337010;26;20001;-64
2024/04/09 00:14:48;;;;;;;94.38;12.23;;;;;;;16.46;100.00;96894.34;5332169;26;20043;-66
2024/04/09 00:17:18;;;;;;;78.55;11.98;;;;;;;16.26;100.00;96886.44;5335110;26;20004;-63
2024/04/09 00:19:47;;;;;;;65.07;11.20;;;;;;;16.09;100.00;96892.44;5335991;26;20541;-66
2024/04/09 00:22:13;;;;;;;63.78;10.63;;;;;;;16.32;100.00;96876.59;5333220;26;20011;-65
2024/04/09 00:24:39;;;;;;;74.07;11.27;;;;;;;16.30;100.00;96888.94;5330899;26;20392;-62
2024/04/09 00:27:06;;;;;;;73.40;12.43;;;;;;;16.26;100.00;96880.38;5334803;26;20616;-66
2024/04/09 00:29:32;;;;;;;88.50;12.65;;;;;;;16.27;100.00;96869.78;5332046;26;20027;-64
2024/04/09 00:31:57;;;;;;;68.72;11.25;;;;;;;16.15;100.00;96870.34;5330326;26;20385;-67
2024/04/09 00:34:23;;;;;;;60.50;10.23;;;;;;;16.25;100.00;96866.38;5333200;26;20001;-63
2024/04/09 00:36:49;;;;;;;99.63;13.35;;;;;;;15.97;100.00;96861.50;5332377;26;20487;-64
2024/04/09 00:39:22;;;;;;;62.28;10.50;;;;;;;16.00;100.00;96861.38;5346694;26;20590;-63
2024/04/09 00:41:48;;;;;;;70.90;10.32;;;;;;;16.06;100.00;96862.84;5334958;26;20959;-66
2024/04/09 00:44:14;;;;;;;92.70;12.57;;;;;;;16.09;100.00;96858.34;5332413;26;20789;-67
2024/04/09 00:46:40;;;;;;;73.60;10.43;;;;;;;16.11;100.00;96845.16;5331791;26;20010;-67
2024/04/09 00:49:08;;;;;;;47.53;9.52;;;;;;;16.03;100.00;96844.66;5332893;26;20462;-64
2024/04/09 00:51:34;;;;;;;80.53;12.20;;;;;;;15.97;100.00;96843.16;5331724;26;20090;-66
2024/04/09 00:54:00;;;;;;;82.53;11.45;;;;;;;16.00;100.00;96845.66;5335166;26;20346;-65
2024/04/09 00:56:27;;;;;;;65.07;10.65;;;;;;;15.86;100.00;96838.34;5333150;26;20423;-66
2024/04/09 00:58:53;;;;;;;85.18;12.57;;;;;;;15.57;100.00;96836.06;5330197;26;20044;-67
2024/04/09 01:01:19;;;;;;;67.20;11.23;;;;;;;15.73;100.00;96828.38;5328229;26;20043;-64
2024/04/09 01:03:45;;;;;;;65.03;10.25;;;;;;;15.64;100.00;96834.03;5335469;26;20407;-67
2024/04/09 01:06:11;;;;;;;92.68;12.60;;;;;;;15.62;100.00;96826.22;5330034;26;20353;-64
2024/04/09 01:08:37;;;;;;;48.33;9.77;;;;;;;15.61;100.00;96824.53;5332587;26;20761;-66
2024/04/09 01:11:02;;;;;;;60.58;9.90;;;;;;;15.62;100.00;96823.59;5330007;26;20796;-66
2024/04/09 01:13:28;;;;;;;93.35;11.55;;;;;;;15.82;100.00;96821.03;5337113;26;20027;-64
2024/04/09 01:15:53;;;;;;;100.88;11.18;;;;;;;15.94;100.00;96817.03;5330732;26;20005;-63
2024/04/09 01:18:18;;;;;;;68.47;10.43;;;;;;;16.13;100.00;96814.47;5332441;26;20416;-65
2024/04/09 01:20:43;;;;;;;88.05;9.77;;;;;;;16.34;100.00;96822.28;5334417;26;20000;-63
2024/04/09 01:23:09;;;;;;;57.67;9.10;;;;;;;16.25;100.00;96829.66;5334197;26;20008;-62
2024/04/09 01:25:35;;;;;;;68.55;10.15;;;;;;;16.13;100.00;96833.69;5329210;26;20005;-63
2024/04/09 01:28:00;;;;;;;91.35;11.07;;;;;;;16.27;100.00;96840.91;5329556;26;20000;-66
2024/04/09 01:30:26;;;;;;;82.32;10.70;;;;;;;16.23;100.00;96841.16;5334098;26;20004;-64
2024/04/09 01:32:51;;;;;;;67.55;10.10;;;;;;;15.80;100.00;96838.59;5331744;26;20472;-63
2024/04/09 01:35:18;;;;;;;71.25;10.60;;;;;;;15.74;100.00;96842.34;5329023;26;20008;-63
2024/04/09 01:37:44;;;;;;;75.13;10.45;;;;;;;15.96;100.00;96839.66;5330038;26;20001;-65
2024/04/09 01:40:10;;;;;;;73.53;10.18;;;;;;;15.98;100.00;96850.09;5332331;26;20082;-67
2024/04/09 01:42:36;;;;;;;55.60;8.18;;;;;;;15.96;100.00;96859.81;5335331;26;19997;-65
2024/04/09 01:45:02;;;;;;;76.65;10.02;;;;;;;15.99;100.00;96850.03;5330502;26;20001;-66
2024/04/09 01:47:27;;;;;;;65.80;9.45;;;;;;;16.05;100.00;96858.53;5336533;26;20255;-64
2024/04/09 01:49:53;;;;;;;85.80;11.20;;;;;;;16.03;100.00;96870.88;5333352;26;20058;-62
2024/04/09 01:52:19;;;;;;;86.43;12.18;;;;;;;15.85;100.00;96866.31;5332150;26;20023;-67
2024/04/09 01:54:46;;;;;;;69.85;10.57;;;;;;;15.83;100.00;96875.16;5335082;26;20882;-63
2024/04/09 01:57:11;;;;;;;79.10;9.68;;;;;;;15.81;100.00;96867.34;5331542;26;20001;-63
2024/04/09 01:59:38;;;;;;;89.20;11.02;;;;;;;15.84;100.00;96871.63;5337744;26;20005;-66
2024/04/09 02:02:04;;;;;;;63.33;9.30;;;;;;;15.84;100.00;96876.88;5339216;26;20000;-63
2024/04/09 02:04:30;;;;;;;69.70;10.48;;;;;;;15.78;100.00;96877.13;5335840;26;20016;-63
2024/04/09 02:06:55;;;;;;;99.30;11.73;;;;;;;15.74;100.00;96868.56;5339225;26;20048;-64
2024/04/09 02:09:22;;;;;;;77.68;9.77;;;;;;;15.83;100.00;96869.91;5335727;26;20046;-63
2024/04/09 02:11:48;;;;;;;65.32;9.88;;;;;;;15.90;100.00;96876.63;5334133;26;20330;-67
2024/04/09 02:14:14;;;;;;;90.43;10.57;;;;;;;15.95;100.00;96879.06;5339021;26;19996;-64
2024/04/09 02:16:40;;;;;;;61.33;9.43;;;;;;;15.82;100.00;96868.22;5337277;26;20087;-62
2024/04/09 02:19:06;;;;;;;62.97;8.70;;;;;;;15.90;100.00;96875.75;5341323;26;22837;-63
2024/04/09 02:21:32;;;;;;;83.65;11.07;;;;;;;15.84;100.00;96867.25;5331775;26;20001;-68
2024/04/09 02:23:57;;;;;;;75.63;9.00;;;;;;;15.68;100.00;96861.81;5338272;26;20045;-64
2024/04/09 02:26:24;;;;;;;66.82;9.63;;;;;;;15.66;100.00;96860.16;5333206;26;19997;-66
2024/04/09 02:28:50;;;;;;;89.30;10.98;;;;;;;15.62;100.00;96855.03;5335163;26;20903;-63
2024/04/09 02:31:16;;;;;;;64.20;8.75;;;;;;;15.68;100.00;96856.56;5335189;26;20005;-67
2024/04/09 02:33:42;;;;;;;67.65;9.45;;;;;;;15.64;100.00;96852.38;5337755;26;20001;-63
2024/04/09 02:36:09;;;;;;;72.03;9.65;;;;;;;15.71;100.00;96848.53;5334124;26;20001;-64
2024/04/09 02:38:35;;;;;;;71.65;9.30;;;;;;;15.66;100.00;96850.50;5335068;26;20005;-64
2024/04/09 02:41:08;;;;;;;109.13;11.95;;;;;;;15.70;100.00;96852.09;5338213;26;20045;-64
2024/04/09 02:43:34;;;;;;;85.28;10.52;;;;;;;15.62;100.00;96851.56;5340414;26;20001;-65
2024/04/09 02:46:01;;;;;;;101.55;10.95;;;;;;;15.43;100.00;96857.59;5333620;26;20004;-66
2024/04/09 02:48:28;;;;;;;64.82;9.32;;;;;;;15.49;100.00;96857.31;5335147;26;20078;-63
2024/04/09 02:50:55;;;;;;;115.85;12.70;;;;;;;15.40;100.00;96864.72;5335755;26;20293;-64
2024/04/09 02:53:20;;;;;;;71.90;9.77;;;;;;;15.40;100.00;96857.69;5336883;26;20000;-68
2024/04/09 02:55:46;;;;;;;89.90;9.73;;;;;;;15.20;100.00;96866.38;5334115;26;20060;-64
2024/04/09 02:58:12;;;;;;;58.75;11.00;;;;;;;15.22;100.00;96872.41;5332488;26;20020;-63
2024/04/09 03:00:40;;;;;;;71.88;11.20;;;;;;;14.98;100.00;96856.75;5335019;26;20529;-65
2024/04/09 03:03:05;;;;;;;79.82;10.48;;;;;;;15.11;100.00;96859.75;5339060;26;20001;-63
2024/04/09 03:05:32;;;;;;;74.20;10.52;;;;;;;15.17;100.00;96864.72;5333428;26;20001;-63
2024/04/09 03:07:58;;;;;;;74.45;10.57;;;;;;;14.94;100.00;96858.66;5334575;26;20469;-63
2024/04/09 03:10:26;;;;;;;88.25;11.50;;;;;;;14.82;100.00;96853.88;5332405;26;20073;-66
2024/04/09 03:12:51;;;;;;;77.13;11.32;;;;;;;14.81;100.00;96854.81;5334606;26;20075;-63
2024/04/09 03:15:17;;;;;;;73.35;9.80;;;;;;;14.77;100.00;96861.06;5334959;26;20000;-63
2024/04/09 03:17:42;;;;;;;44.55;8.07;;;;;;;14.39;100.00;96857.19;5332738;26;20618;-63
2024/04/09 03:20:10;;;;;;;81.95;10.45;;;;;;;14.35;100.00;96860.81;5332182;26;20089;-67
2024/04/09 03:22:38;;;;;;;59.75;8.68;;;;;;;14.69;100.00;96864.78;5334140;26;20077;-63
2024/04/09 03:25:05;;;;;;;98.50;11.48;;;;;;;14.78;100.00;96865.38;5332921;26;20071;-65
2024/04/09 03:27:32;;;;;;;69.75;9.98;;;;;;;14.60;100.00;96857.28;5330968;26;20601;-67
2024/04/09 03:29:57;;;;;;;87.75;11.32;;;;;;;14.65;100.00;96863.19;5333811;26;20000;-66
2024/04/09 03:32:23;;;;;;;77.78;10.75;;;;;;;14.49;100.00;96864.69;5329863;26;20005;-68
2024/04/09 03:34:49;;;;;;;66.85;9.02;;;;;;;14.55;100.00;96864.47;5333903;26;20707;-63
2024/04/09 03:37:15;;;;;;;57.70;8.70;;;;;;;14.45;100.00;96859.56;5335763;26;20543;-67
2024/04/09 03:39:41;;;;;;;78.13;11.18;;;;;;;14.29;100.00;96855.84;5335013;26;20363;-63
2024/04/09 03:42:06;;;;;;;84.53;12.15;;;;;;;14.04;100.00;96854.09;5331621;26;20258;-66
2024/04/09 03:44:32;;;;;;;87.30;10.90;;;;;;;14.26;100.00;96853.31;5334993;26;19997;-63
2024/04/09 03:47:03;;;;;;;82.53;11.57;;;;;;;14.17;100.00;96854.50;5331915;26;20012;-65
2024/04/09 03:49:29;;;;;;;76.80;9.55;;;;;;;13.93;100.00;96857.09;5335617;26;20001;-63
2024/04/09 03:51:54;;;;;;;82.95;10.50;;;;;;;14.01;100.00;96870.75;5332872;26;20019;-68
2024/04/09 03:54:20;;;;;;;90.93;10.73;;;;;;;14.04;100.00;96869.78;5332909;26;20078;-64
2024/04/09 03:56:45;;;;;;;82.90;9.63;;;;;;;14.02;100.00;96868.97;5334904;26;20120;-63
2024/04/09 03:59:10;;;;;;;74.10;9.88;;;;;;;14.00;100.00;96868.19;5344457;26;20690;-63
2024/04/09 04:01:36;;;;;;;63.95;9.48;;;;;;;14.10;100.00;96874.78;5328080;26;20160;-68
2024/04/09 04:04:02;;;;;;;95.78;10.93;;;;;;;14.23;100.00;96869.97;5331836;26;20004;-65
2024/04/09 04:06:27;;;;;;;69.50;9.10;;;;;;;14.34;100.00;96880.03;5333548;26;20078;-65
2024/04/09 04:08:52;;;;;;;94.72;10.55;;;;;;;14.31;100.00;96880.16;5330382;26;20046;-67
2024/04/09 04:11:18;;;;;;;96.72;10.27;;;;;;;14.39;100.00;96891.19;5329946;26;19997;-67
2024/04/09 04:13:43;;;;;;;75.47;9.77;;;;;;;14.37;100.00;96874.72;5333745;26;20011;-64
2024/04/09 04:16:10;;;;;;;77.35;10.07;;;;;;;14.14;100.00;96884.22;5331508;26;20004;-64
2024/04/09 04:18:39;;;;;;;90.20;11.55;;;;;;;14.15;100.00;96878.06;5334775;26;20428;-67
2024/04/09 04:21:05;;;;;;;81.03;10.60;;;;;;;14.30;100.00;96874.06;5331267;26;20092;-63
2024/04/09 04:23:31;;;;;;;72.03;9.27;;;;;;;14.35;100.00;96868.66;5333310;26;19997;-64
2024/04/09 04:26:04;;;;;;;114.10;12.63;;;;;;;14.46;100.00;96873.50;5330691;26;20015;-66
2024/04/09 04:28:34;;;;;;;63.80;9.40;;;;;;;14.32;100.00;96860.94;5333734;26;20001;-65
2024/04/09 04:31:01;;;;;;;125.20;12.68;;;;;;;14.46;100.00;96863.03;5329636;26;20000;-64
2024/04/09 04:33:26;;;;;;;72.43;10.05;;;;;;;14.64;100.00;96868.50;5335274;26;19997;-66
2024/04/09 04:35:52;;;;;;;77.82;10.18;;;;;;;14.80;100.00;96863.53;5329927;26;20015;-64
2024/04/09 04:38:18;;;;;;;86.43;10.25;;;;;;;14.82;100.00;96872.22;5332184;26;20104;-68
2024/04/09 04:40:46;;;;;;;72.57;9.90;;;;;;;15.06;100.00;96869.53;5337887;26;20005;-64
2024/04/09 04:43:14;;;;;;;65.32;9.35;;;;;;;15.03;100.00;96867.88;5333604;26;20011;-65
2024/04/09 04:45:40;;;;;;;66.60;10.10;;;;;;;14.82;100.00;96857.34;5328988;26;20012;-68
2024/04/09 04:48:06;;;;;;;84.80;10.38;;;;;;;14.93;100.00;96859.53;5336191;26;20011;-64
2024/04/09 04:50:31;;;;;;;82.25;10.57;;;;;;;15.20;100.00;96862.00;5335384;26;20011;-66
2024/04/09 04:52:57;;;;;;;95.32;13.38;;;;;;;15.68;100.00;96856.56;5329900;26;20008;-67
2024/04/09 04:55:22;;;;;;;66.75;9.70;;;;;;;15.78;100.00;96859.66;5330911;26;20425;-67
2024/04/09 04:57:48;;;;;;;72.95;9.82;;;;;;;15.75;100.00;96859.78;5332053;26;20001;-64
2024/04/09 05:00:14;;;;;;;73.20;10.60;;;;;;;15.65;100.00;96861.06;5330393;26;20001;-65
2024/04/09 05:02:40;;;;;;;66.50;9.82;;;;;;;15.55;100.00;96858.00;5329568;26;20661;-64
2024/04/09 05:05:07;;;;;;;72.43;10.13;;;;;;;15.52;100.00;96866.84;5333183;26;20286;-64
2024/04/09 05:07:33;;;;;;;73.10;10.98;;;;;;;15.54;100.00;96856.28;5333673;26;20001;-64
2024/04/09 05:09:59;;;;;;;80.57;10.57;;;;;;;15.91;100.00;96857.34;5330142;26;20023;-67
2024/04/09 05:12:25;;;;;;;68.95;12.23;;;;;;;15.36;100.00;96848.25;5330960;26;20011;-66
2024/04/09 05:14:50;;;;;;;73.80;10.68;;;;;;;15.59;100.00;96851.72;5329593;26;20001;-67
2024/04/09 05:17:16;;;;;;;88.28;11.70;;;;;;;15.55;100.00;96855.38;5327337;26;20733;-65
2024/04/09 05:19:42;;;;;;;72.45;10.43;;;;;;;15.79;100.00;96856.09;5333054;26;20005;-65
2024/04/09 05:22:09;;;;;;;91.32;11.90;;;;;;;16.01;100.00;96848.19;5329796;26;20001;-63
2024/04/09 05:24:38;;;;;;;85.85;13.23;;;;;;;16.61;100.00;96856.91;5335845;26;20033;-66
2024/04/09 05:27:03;;;;;;;89.07;11.25;;;;;;;17.20;100.00;96858.59;5339051;26;20029;-65
2024/04/09 05:29:29;;;;;;;74.05;9.70;;;;;;;17.80;100.00;96873.19;5339173;26;20357;-67
2024/04/09 05:31:54;;;;;;;96.95;11.23;;;;;;;17.64;100.00;96880.13;5335055;26;20032;-67
2024/04/09 05:34:19;;;;;;;77.18;8.85;;;;;;;18.23;100.00;96879.81;5339948;26;20005;-64
2024/04/09 05:36:45;;;;;;;70.90;9.07;;;;;;;18.64;100.00;96877.69;5336310;26;20023;-64
2024/04/09 05:39:10;;;;;;;101.00;11.02;;;;;;;19.35;100.00;96872.97;5335760;26;20000;-69
2024/04/09 05:41:35;;;;;;;63.03;8.43;;;;;;;19.46;100.00;96880.25;5335118;26;20001;-67
2024/04/09 05:44:01;;;;;;;86.05;10.50;;;;;;;20.15;100.00;96885.06;5331482;26;20019;-65
2024/04/09 05:46:26;;;;;;;82.28;10.23;;;;;;;20.70;100.00;96871.22;5330718;26;20087;-69
2024/04/09 05:48:52;;;;;;;67.97;9.05;;;;;;;20.85;100.00;96877.34;5335434;26;20008;-66
2024/04/09 05:51:17;;;;;;;64.13;9.20;;;;;;;20.58;100.00;96878.09;5332586;26;20000;-68
2024/04/09 05:53:42;;;;;;;108.38;12.43;;;;;;;20.56;100.00;96878.19;5327823;26;20001;-72
2024/04/09 05:56:08;;;;;;;95.93;11.85;;;;;;;20.71;100.00;96888.78;5328466;26;20007;-72
2024/04/09 05:58:33;;;;;;;68.72;9.82;;;;;;;20.96;100.00;96890.75;5334825;26;20079;-69
2024/04/09 06:01:00;;;;;;;113.97;13.10;;;;;;;21.09;100.00;96897.88;5331175;26;20485;-71
2024/04/09 06:03:27;;;;;;;54.55;8.68;;;;;;;21.30;100.00;96898.31;5333921;26;20390;-70
2024/04/09 06:05:54;;;;;;;61.20;9.75;;;;;;;21.74;91.31;96914.06;5328625;26;20020;-71
2024/04/09 06:08:20;;;;;;;61.45;10.02;;;;;;;21.94;97.77;96916.19;5332742;26;20004;-70
2024/04/09 06:10:46;;;;;;;53.05;9.65;;;;;;;22.32;91.27;96914.56;5330100;26;20012;-69
2024/04/09 06:13:11;;;;;;;80.90;11.23;;;;;;;22.12;93.18;96923.84;5335909;26;20000;-66
2024/04/09 06:15:37;;;;;;;70.97;10.30;;;;;;;22.41;91.12;96928.97;5332811;26;20156;-71
2024/04/09 06:18:03;;;;;;;79.55;11.32;;;;;;;22.38;95.15;96942.41;5334920;26;20007;-70
2024/04/09 06:20:28;;;;;;;77.70;10.50;;;;;;;22.26;88.66;96941.44;5331298;26;20016;-71
2024/04/09 06:22:54;;;;;;;70.45;10.10;;;;;;;22.31;87.61;96941.16;5337503;26;20071;-70
2024/04/09 06:25:19;;;;;;;69.10;10.68;;;;;;;21.98;84.99;96938.03;5337497;26;20541;-68
2024/04/09 06:27:45;;;;;;;60.15;9.88;;;;;;;21.57;87.67;96945.91;5336979;26;20000;-69
2024/04/09 06:30:10;;;;;;;84.05;11.00;;;;;;;21.50;84.40;96949.91;5331253;26;20641;-71
2024/04/09 06:32:35;;;;;;;62.30;10.00;;;;;;;22.05;85.59;96954.34;5335916;26;20000;-70
2024/04/09 06:35:01;;;;;;;73.93;10.75;;;;;;;21.82;80.21;96956.75;5332808;26;20000;-70
2024/04/09 06:37:27;;;;;;;58.33;9.88;;;;;;;22.20;84.70;96965.72;5336934;26;20014;-70
2024/04/09 06:39:52;;;;;;;73.32;10.35;;;;;;;21.37;82.24;96959.59;5332302;26;20536;-69
2024/04/09 06:42:17;;;;;;;60.50;9.27;;;;;;;22.22;79.39;96951.41;5329953;26;20001;-69
2024/04/09 06:44:43;;;;;;;50.30;9.10;;;;;;;22.33;79.56;96955.13;5334243;26;20005;-69
2024/04/09 06:47:08;;;;;;;72.10;10.70;;;;;;;22.29;81.30;96965.09;5327969;26;20413;-69
2024/04/09 06:49:34;;;;;;;61.58;10.00;;;;;;;22.33;79.94;96961.28;5332441;26;20017;-71
2024/04/09 06:51:59;;;;;;;76.43;10.45;;;;;;;22.20;78.42;96973.66;5331203;26;20035;-69
2024/04/09 06:54:25;;;;;;;67.20;10.75;;;;;;;22.00;73.47;96967.06;5333855;26;20021;-71
2024/04/09 06:56:50;;;;;;;59.55;9.77;;;;;;;22.00;69.84;96977.63;5333109;26;20009;-70
2024/04/09 06:59:17;;;;;;;57.95;9.95;;;;;;;22.63;71.85;96975.19;5334848;26;20386;-70
2024/04/09 07:01:42;;;;;;;59.60;8.95;;;;;;;22.13;67.67;96983.81;5330903;26;20001;-69
2024/04/09 07:04:07;;;;;;;72.30;10.73;;;;;;;22.20;66.04;96978.94;5332795;26;20528;-70
2024/04/09 07:06:33;;;;;;;49.63;8.43;;;;;;;22.44;65.92;96981.72;5334681;26;20044;-69
2024/04/09 07:09:02;;;;;;;58.70;9.23;;;;;;;22.81;67.36;96981.03;5334842;26;20744;-71
2024/04/09 07:11:27;;;;;;;65.20;9.25;;;;;;;22.27;71.19;96982.03;5332292;26;19997;-70
2024/04/09 07:13:53;;;;;;;56.75;8.80;;;;;;;22.49;66.08;96998.16;5335839;26;20019;-71
2024/04/09 07:16:19;;;;;;;69.30;9.75;;;;;;;22.63;68.28;96991.09;5334666;26;20378;-71
2024/04/09 07:18:45;;;;;;;56.97;8.93;;;;;;;22.59;69.96;96997.56;5332580;26;20009;-71
2024/04/09 07:21:10;;;;;;;77.40;10.82;;;;;;;22.53;69.25;97000.59;5325401;26;20466;-71
2024/04/09 07:23:35;;;;;;;49.55;9.18;;;;;;;22.45;67.10;97004.63;5330129;26;20012;-70
2024/04/09 07:26:00;;;;;;;61.85;9.52;;;;;;;22.14;65.52;97008.47;5333306;26;20119;-71
2024/04/09 07:28:26;;;;;;;58.30;9.43;;;;;;;22.37;64.47;97009.59;5333192;26;20349;-71
2024/04/09 07:30:51;;;;;;;78.65;11.93;;;;;;;22.70;63.67;97010.06;5332679;26;20081;-69
2024/04/09 07:33:16;;;;;;;60.50;9.38;;;;;;;22.55;64.84;97025.22;5328929;26;20012;-70
2024/04/09 07:35:42;;;;;;;49.28;8.15;;;;;;;22.46;68.88;97019.53;5332545;26;20409;-69
2024/04/09 07:38:07;;;;;;;69.05;10.10;;;;;;;22.27;66.34;97027.88;5329628;26;20772;-68
2024/04/09 07:40:33;;;;;;;91.93;10.57;;;;;;;22.76;63.44;97041.47;5334544;26;20005;-70
2024/04/09 07:42:58;;;;;;;48.53;8.05;;;;;;;22.87;62.13;97033.59;5332572;26;20460;-68
2024/04/09 07:45:23;;;;;;;65.38;9.13;;;;;;;23.53;58.60;97037.06;5331400;26;20013;-71
2024/04/09 07:47:51;;;;;;;62.72;9.95;;;;;;;22.96;60.69;97045.38;5333474;26;20001;-69
2024/04/09 07:50:16;;;;;;;81.95;11.18;;;;;;;23.26;59.10;97030.94;5329462;26;20001;-70
2024/04/09 07:52:42;;;;;;;49.15;8.52;;;;;;;24.35;58.48;97037.38;5330380;26;20423;-69
2024/04/09 07:55:08;;;;;;;64.25;9.32;;;;;;;24.12;56.25;97042.63;5332912;26;20083;-71
2024/04/09 07:57:35;;;;;;;64.53;10.07;;;;;;;23.67;57.42;97049.31;5333372;26;20012;-71
2024/04/09 08:00:00;;;;;;;55.53;9.43;;;;;;;23.70;57.55;97058.88;5334273;26;20092;-69
2024/04/09 08:02:25;;;;;;;73.32;10.05;;;;;;;23.84;57.03;97055.22;5331662;26;20008;-69
2024/04/09 08:04:51;;;;;;;64.25;9.13;;;;;;;24.51;54.73;97055.69;5334550;26;20086;-69
2024/04/09 08:07:16;;;;;;;75.47;10.63;;;;;;;25.00;54.55;97063.53;5332282;26;20037;-68
2024/04/09 08:09:42;;;;;;;79.88;10.80;;;;;;;24.02;57.52;97064.50;5334312;26;20012;-70
2024/04/09 08:12:08;;;;;;;70.72;10.32;;;;;;;24.18;56.19;97068.72;5331153;26;20005;-69
2024/04/09 08:14:33;;;;;;;50.63;8.98;;;;;;;24.11;57.41;97075.44;5329896;26;20461;-68
2024/04/09 08:16:59;;;;;;;54.25;9.52;;;;;;;23.57;59.57;97094.25;5330266;26;20328;-67
2024/04/09 08:19:27;;;;;;;59.85;9.40;;;;;;;23.92;59.25;97093.53;5330622;26;20044;-69
2024/04/09 08:21:54;;;;;;;60.40;10.57;;;;;;;24.18;56.99;97089.97;5331977;26;20442;-69
2024/04/09 08:24:20;;;;;;;96.78;11.95;;;;;;;24.50;56.21;97084.06;5327535;26;20472;-69
2024/04/09 08:26:45;;;;;;;61.42;9.85;;;;;;;24.66;55.57;97099.72;5332535;26;20005;-70
2024/04/09 08:29:14;;;;;;;71.00;9.70;;;;;;;24.53;54.97;97112.22;5333552;26;20654;-69
2024/04/09 08:31:42;;;;;;;63.95;10.02;;;;;;;25.35;53.54;97121.16;5326678;26;20385;-70
2024/04/09 08:34:08;;;;;;;65.22;10.65;;;;;;;25.27;51.92;97113.75;5338631;26;20517;-68
2024/04/09 08:36:36;;;;;;;45.30;8.35;;;;;;;25.37;53.79;97118.34;5340910;26;20009;-68
2024/04/09 08:39:03;;;;;;;80.25;10.85;;;;;;;25.19;52.50;97116.16;5333328;26;20011;-68
2024/04/09 08:41:29;;;;;;;43.30;8.43;;;;;;;24.87;52.96;97119.50;5338165;26;19997;-68
2024/04/09 08:43:57;;;;;;;45.65;9.38;;;;;;;24.91;54.13;97119.13;5335116;26;20016;-68
2024/04/09 08:46:23;;;;;;;64.28;10.23;;;;;;;25.27;51.96;97113.75;5328891;26;20312;-67
2024/04/09 08:48:50;;;;;;;61.15;9.30;;;;;;;25.42;51.52;97114.38;5333371;26;20424;-68
2024/04/09 08:51:16;;;;;;;69.88;10.27;;;;;;;25.13;52.27;97121.97;5326720;26;20564;-69
2024/04/09 08:53:45;;;;;;;49.83;9.02;;;;;;;26.31;48.49;97128.72;5327799;26;20082;-70
2024/04/09 08:56:10;;;;;;;72.53;9.95;;;;;;;26.36;47.43;97125.69;5334473;26;20011;-71
2024/04/09 08:58:36;;;;;;;58.30;22.45;;;;;;;25.72;48.80;97133.41;5333234;26;20429;-70
2024/04/09 09:01:02;;;;;;;81.40;12.23;;;;;;;25.61;48.89;97120.94;5328090;26;20070;-69
2024/04/09 09:03:27;;;;;;;52.13;8.80;;;;;;;25.30;49.09;97128.63;5337406;26;20016;-68
2024/04/09 09:06:04;;;;;;;52.17;8.88;;;;;;;25.04;49.81;97142.13;5331927;26;20455;-69
2024/04/09 09:08:42;;;;;;;54.45;9.38;;;;;;;25.61;48.49;97153.72;5335884;26;20563;-70
2024/04/09 09:11:09;;;;;;;64.75;10.25;;;;;;;25.71;48.16;97155.66;5333993;26;20022;-70
2024/04/09 09:13:34;;;;;;;62.25;9.90;;;;;;;25.85;47.68;97166.09;5335857;26;20005;-69
2024/04/09 09:16:00;;;;;;;48.90;8.20;;;;;;;25.85;47.86;97166.09;5332382;26;20012;-68
2024/04/09 09:18:25;;;;;;;58.28;8.63;;;;;;;27.01;45.42;97173.69;5331769;26;20078;-67
2024/04/09 09:21:00;;;;;;;79.22;10.52;;;;;;;27.12;45.46;97171.91;5332894;26;20004;-67
2024/04/09 09:23:26;;;;;;;48.70;9.05;;;;;;;27.63;43.50;97175.63;5333958;26;20111;-68
2024/04/09 09:25:52;;;;;;;53.83;8.93;;;;;;;28.46;41.84;97174.63;5332334;26;20016;-69
2024/04/09 09:28:21;;;;;;;79.28;10.30;;;;;;;28.58;42.80;97172.66;5331243;26;20628;-69
2024/04/09 09:30:47;;;;;;;48.00;9.23;;;;;;;29.24;40.69;97169.41;5333666;26;20018;-68
2024/04/09 09:33:20;;;;;;;66.63;9.10;;;;;;;28.98;41.07;97183.41;5332936;26;20012;-70
2024/04/09 09:35:50;;;;;;;56.65;8.25;;;;;;;29.38;40.63;97181.50;5337005;26;20015;-68
2024/04/09 09:38:20;;;;;;;65.55;9.50;;;;;;;28.38;41.17;97193.19;5330871;26;20011;-70
2024/04/09 09:40:50;;;;;;;60.28;8.35;;;;;;;28.06;41.13;97189.69;5333393;26;19997;-67
2024/04/09 09:43:17;;;;;;;65.75;8.48;;;;;;;27.51;41.92;97195.34;5333367;26;20001;-67
2024/04/09 09:45:47;;;;;;;52.92;8.63;;;;;;;27.10;42.83;97204.09;5332137;26;20005;-68
2024/04/09 09:48:15;;;;;;;86.55;11.70;;;;;;;26.78;43.66;97203.09;5333043;26;20432;-67
2024/04/09 09:50:41;;;;;;;65.05;10.10;;;;;;;25.71;45.27;97198.25;5334362;26;19996;-67
2024/04/09 09:53:07;;;;;;;69.85;10.27;;;;;;;26.46;44.73;97203.91;5328403;26;20019;-67
2024/04/09 09:55:34;;;;;;;56.50;9.48;;;;;;;25.34;46.67;97199.28;5332205;26;20000;-69
2024/04/09 09:58:03;;;;;;;47.03;8.27;;;;;;;25.28;47.14;97216.59;5335491;26;20012;-70
2024/04/09 10:00:31;;;;;;;77.00;11.20;;;;;;;24.37;50.39;97218.78;5329778;26;20505;-70
2024/04/09 10:02:57;;;;;;;68.80;10.85;;;;;;;23.81;52.87;97223.56;5338242;26;20004;-70
2024/04/09 10:05:23;;;;;;;85.15;11.50;;;;;;;23.77;54.23;97232.69;5334053;26;20167;-69
2024/04/09 10:07:49;;;;;;;70.35;10.10;;;;;;;24.17;54.59;97234.38;5332893;26;20015;-69
2024/04/09 10:10:29;;;;;;;100.32;12.43;;;;;;;23.95;55.08;97227.03;5326249;26;20001;-66
2024/04/09 10:12:56;;;;;;;60.47;10.35;;;;;;;24.37;53.55;97222.31;5331976;26;20226;-69
2024/04/09 10:15:27;;;;;;;96.63;12.25;;;;;;;24.30;54.87;97221.91;5329178;26;20447;-68
2024/04/09 10:17:53;;;;;;;;;;;;;;;24.21;54.67;97216.41;5336073;26;20010;-67
2024/04/09 10:20:30;;;;;;;80.40;11.00;;;;;;;24.35;54.90;97224.25;5331254;26;19926;-67
2024/04/09 10:23:01;;;;;;;77.55;10.05;;;;;;;23.95;57.72;97230.56;5331413;26;20012;-68
2024/04/09 10:25:31;;;;;;;58.90;9.82;;;;;;;23.75;57.88;97235.44;5328455;26;20004;-67
2024/04/09 10:28:06;;;;;;;79.82;11.15;;;;;;;24.06;58.47;97230.63;5334681;26;20011;-70
2024/04/09 10:30:33;;;;;;;82.47;11.55;;;;;;;23.81;59.23;97250.09;5334269;26;20445;-69
2024/04/09 10:33:03;;;;;;;66.18;10.50;;;;;;;24.00;60.55;97262.94;5332347;26;20523;-70
2024/04/09 10:35:29;;;;;;;55.67;9.13;;;;;;;23.61;61.31;97280.69;5330782;26;20005;-68
2024/04/09 10:37:56;;;;;;;74.45;10.68;;;;;;;23.87;60.93;97283.34;5330909;26;20008;-67
2024/04/09 10:40:22;;;;;;;91.25;12.05;;;;;;;23.71;63.06;97291.53;5327316;26;20037;-69
2024/04/09 10:42:48;;;;;;;59.47;9.88;;;;;;;24.23;62.90;97294.19;5335464;26;20344;-69
2024/04/09 10:45:15;;;;;;;64.13;9.68;;;;;;;24.05;61.11;97294.50;5329495;26;20000;-70
2024/04/09 10:47:41;;;;;;;57.08;9.93;;;;;;;24.82;57.50;97298.81;5332645;26;19996;-69
2024/04/09 10:50:07;;;;;;;46.83;9.25;;;;;;;25.03;56.99;97298.22;5329081;26;20016;-70
2024/04/09 10:52:33;;;;;;;51.38;8.82;;;;;;;26.32;51.52;97306.34;5329895;26;20001;-69
2024/04/09 10:55:12;;;;;;;57.17;9.38;;;;;;;26.78;50.04;97316.94;5334027;26;20019;-71
2024/04/09 10:57:37;;;;;;;48.58;8.38;;;;;;;26.08;51.40;97325.91;5336355;26;20015;-67
2024/04/09 11:00:08;;;;;;;58.15;9.52;;;;;;;25.81;53.65;97324.41;5331981;26;20055;-71
2024/04/09 11:02:34;;;;;;;62.90;9.93;;;;;;;24.67;58.42;97334.47;5335534;26;20094;-68
2024/04/09 11:04:59;;;;;;;49.65;9.02;;;;;;;24.14;63.62;97322.22;5333783;26;20004;-70
2024/04/09 11:07:25;;;;;;;77.80;11.95;;;;;;;24.66;62.99;97323.00;5330188;26;20005;-69
2024/04/09 11:09:52;;;;;;;56.00;10.07;;;;;;;24.46;63.94;97326.25;5333833;26;20000;-69
2024/04/09 11:12:18;;;;;;;110.60;43.28;;;;;;;23.91;67.82;97328.16;5327813;26;20045;-68